sensor_id;sensor_type;location;lat;lon;timestamp;P1;durP1;ratioP1;P2;durP2;ratioP2
26034;SDS011;13809;48.632;11.576;2023-03-12T00:02:40;4.10;;;3.70;;
26034;SDS011;13809;48.632;11.576;2023-03-12T00:07:43;3.53;;;3.03;;
26034;SDS011;13809;48.632;11.576;2023-03-12T00:12:50;4.70;;;3.07;;
26034;SDS011;13809;48.632;11.576;2023-03-12T00:17:53;4.17;;;3.47;;
26034;SDS011;13809;48.632;11.576;2023-03-12T00:22:56;3.33;;;3.03;;
26034;SDS011;13809;48.632;11.576;2023-03-12T00:28:01;3.93;;;3.63;;
26034;SDS011;13809;48.632;11.576;2023-03-12T00:33:04;5.30;;;3.17;;
26034;SDS011;13809;48.632;11.576;2023-03-12T00:38:07;5.17;;;3.10;;
26034;SDS011;13809;48.632;11.576;2023-03-12T00:43:11;3.97;;;2.83;;
26034;SDS011;13809;48.632;11.576;2023-03-12T00:48:15;3.63;;;3.33;;
26034;SDS011;13809;48.632;11.576;2023-03-12T00:53:18;3.33;;;2.90;;
26034;SDS011;13809;48.632;11.576;2023-03-12T00:58:22;3.37;;;3.07;;
26034;SDS011;13809;48.632;11.576;2023-03-12T01:03:26;3.30;;;3.00;;
26034;SDS011;13809;48.632;11.576;2023-03-12T01:08:29;3.43;;;3.13;;
26034;SDS011;13809;48.632;11.576;2023-03-12T01:13:34;3.70;;;3.20;;
26034;SDS011;13809;48.632;11.576;2023-03-12T01:18:37;3.50;;;3.20;;
26034;SDS011;13809;48.632;11.576;2023-03-12T01:23:40;3.00;;;2.70;;
26034;SDS011;13809;48.632;11.576;2023-03-12T01:28:45;3.27;;;2.97;;
26034;SDS011;13809;48.632;11.576;2023-03-12T01:33:48;3.77;;;2.93;;
26034;SDS011;13809;48.632;11.576;2023-03-12T01:38:53;3.87;;;3.27;;
26034;SDS011;13809;48.632;11.576;2023-03-12T01:43:59;3.60;;;2.87;;
26034;SDS011;13809;48.632;11.576;2023-03-12T01:49:04;3.63;;;2.83;;
26034;SDS011;13809;48.632;11.576;2023-03-12T01:54:11;3.33;;;2.80;;
26034;SDS011;13809;48.632;11.576;2023-03-12T01:59:19;3.37;;;2.93;;
26034;SDS011;13809;48.632;11.576;2023-03-12T02:04:25;3.47;;;2.50;;
26034;SDS011;13809;48.632;11.576;2023-03-12T02:09:30;3.03;;;2.83;;
26034;SDS011;13809;48.632;11.576;2023-03-12T02:14:36;4.17;;;3.50;;
26034;SDS011;13809;48.632;11.576;2023-03-12T02:19:42;3.50;;;3.20;;
26034;SDS011;13809;48.632;11.576;2023-03-12T02:24:52;3.97;;;3.20;;
26034;SDS011;13809;48.632;11.576;2023-03-12T02:30:05;3.87;;;3.10;;
26034;SDS011;13809;48.632;11.576;2023-03-12T02:35:10;4.53;;;3.10;;
26034;SDS011;13809;48.632;11.576;2023-03-12T02:40:16;3.30;;;3.00;;
26034;SDS011;13809;48.632;11.576;2023-03-12T02:45:26;3.57;;;2.80;;
26034;SDS011;13809;48.632;11.576;2023-03-12T02:50:30;3.87;;;3.20;;
26034;SDS011;13809;48.632;11.576;2023-03-12T02:55:33;3.73;;;2.97;;
26034;SDS011;13809;48.632;11.576;2023-03-12T03:00:38;3.53;;;3.23;;
26034;SDS011;13809;48.632;11.576;2023-03-12T03:05:41;4.73;;;3.47;;
26034;SDS011;13809;48.632;11.576;2023-03-12T03:17:11;4.47;;;3.30;;
26034;SDS011;13809;48.632;11.576;2023-03-12T03:22:14;3.47;;;3.17;;
26034;SDS011;13809;48.632;11.576;2023-03-12T03:27:18;3.97;;;3.53;;
26034;SDS011;13809;48.632;11.576;2023-03-12T03:32:22;4.17;;;3.50;;
26034;SDS011;13809;48.632;11.576;2023-03-12T03:37:26;4.13;;;3.40;;
26034;SDS011;13809;48.632;11.576;2023-03-12T03:42:29;4.47;;;3.87;;
26034;SDS011;13809;48.632;11.576;2023-03-12T03:47:33;4.30;;;3.90;;
26034;SDS011;13809;48.632;11.576;2023-03-12T03:52:37;4.03;;;3.60;;
26034;SDS011;13809;48.632;11.576;2023-03-12T03:57:40;4.13;;;3.50;;
26034;SDS011;13809;48.632;11.576;2023-03-12T04:02:44;4.83;;;3.73;;
26034;SDS011;13809;48.632;11.576;2023-03-12T04:07:48;4.27;;;3.70;;
26034;SDS011;13809;48.632;11.576;2023-03-12T04:12:53;4.07;;;3.10;;
26034;SDS011;13809;48.632;11.576;2023-03-12T04:17:58;3.53;;;3.20;;
26034;SDS011;13809;48.632;11.576;2023-03-12T04:23:01;4.07;;;3.30;;
26034;SDS011;13809;48.632;11.576;2023-03-12T04:28:05;3.57;;;3.27;;
26034;SDS011;13809;48.632;11.576;2023-03-12T04:33:09;4.87;;;3.57;;
26034;SDS011;13809;48.632;11.576;2023-03-12T04:38:13;3.30;;;2.97;;
26034;SDS011;13809;48.632;11.576;2023-03-12T04:43:16;3.70;;;3.40;;
26034;SDS011;13809;48.632;11.576;2023-03-12T04:48:22;3.70;;;3.40;;
26034;SDS011;13809;48.632;11.576;2023-03-12T04:53:26;4.17;;;3.40;;
26034;SDS011;13809;48.632;11.576;2023-03-12T04:58:29;3.50;;;3.20;;
26034;SDS011;13809;48.632;11.576;2023-03-12T05:03:34;3.83;;;3.43;;
26034;SDS011;13809;48.632;11.576;2023-03-12T05:08:38;4.07;;;3.50;;
26034;SDS011;13809;48.632;11.576;2023-03-12T05:13:41;4.27;;;3.50;;
26034;SDS011;13809;48.632;11.576;2023-03-12T05:18:46;3.30;;;3.00;;
26034;SDS011;13809;48.632;11.576;2023-03-12T05:23:49;3.80;;;3.50;;
26034;SDS011;13809;48.632;11.576;2023-03-12T05:28:53;4.07;;;3.67;;
26034;SDS011;13809;48.632;11.576;2023-03-12T05:33:58;4.83;;;3.57;;
26034;SDS011;13809;48.632;11.576;2023-03-12T05:39:01;3.67;;;3.37;;
26034;SDS011;13809;48.632;11.576;2023-03-12T05:44:04;3.60;;;3.30;;
26034;SDS011;13809;48.632;11.576;2023-03-12T05:49:09;3.83;;;3.43;;
26034;SDS011;13809;48.632;11.576;2023-03-12T05:54:12;3.53;;;3.23;;
26034;SDS011;13809;48.632;11.576;2023-03-12T05:59:16;4.60;;;3.40;;
26034;SDS011;13809;48.632;11.576;2023-03-12T06:04:21;3.77;;;3.47;;
26034;SDS011;13809;48.632;11.576;2023-03-12T06:09:24;3.33;;;3.03;;
26034;SDS011;13809;48.632;11.576;2023-03-12T06:14:28;4.27;;;3.60;;
26034;SDS011;13809;48.632;11.576;2023-03-12T06:19:32;4.37;;;3.80;;
26034;SDS011;13809;48.632;11.576;2023-03-12T06:24:36;4.43;;;3.77;;
26034;SDS011;13809;48.632;11.576;2023-03-12T06:29:39;4.40;;;3.87;;
26034;SDS011;13809;48.632;11.576;2023-03-12T06:34:45;3.93;;;3.53;;
26034;SDS011;13809;48.632;11.576;2023-03-12T06:39:48;5.23;;;3.80;;
26034;SDS011;13809;48.632;11.576;2023-03-12T06:44:51;3.63;;;3.33;;
26034;SDS011;13809;48.632;11.576;2023-03-12T06:49:56;4.93;;;3.50;;
26034;SDS011;13809;48.632;11.576;2023-03-12T06:54:59;4.47;;;3.37;;
26034;SDS011;13809;48.632;11.576;2023-03-12T07:00:03;3.80;;;3.50;;
26034;SDS011;13809;48.632;11.576;2023-03-12T07:05:10;4.37;;;3.60;;
26034;SDS011;13809;48.632;11.576;2023-03-12T07:10:13;4.57;;;4.00;;
26034;SDS011;13809;48.632;11.576;2023-03-12T07:15:16;4.67;;;4.17;;
26034;SDS011;13809;48.632;11.576;2023-03-12T07:20:21;5.23;;;4.50;;
26034;SDS011;13809;48.632;11.576;2023-03-12T07:25:24;4.77;;;4.27;;
26034;SDS011;13809;48.632;11.576;2023-03-12T07:30:27;4.63;;;4.20;;
26034;SDS011;13809;48.632;11.576;2023-03-12T07:35:35;4.87;;;4.47;;
26034;SDS011;13809;48.632;11.576;2023-03-12T07:40:40;4.87;;;4.37;;
26034;SDS011;13809;48.632;11.576;2023-03-12T07:45:43;4.77;;;4.37;;
26034;SDS011;13809;48.632;11.576;2023-03-12T07:50:48;5.50;;;5.03;;
26034;SDS011;13809;48.632;11.576;2023-03-12T07:55:52;5.53;;;4.93;;
26034;SDS011;13809;48.632;11.576;2023-03-12T08:00:56;6.83;;;5.57;;
26034;SDS011;13809;48.632;11.576;2023-03-12T08:06:02;7.77;;;5.43;;
26034;SDS011;13809;48.632;11.576;2023-03-12T08:11:07;6.17;;;5.57;;
26034;SDS011;13809;48.632;11.576;2023-03-12T08:16:10;6.43;;;5.47;;
26034;SDS011;13809;48.632;11.576;2023-03-12T08:21:16;6.10;;;5.60;;
26034;SDS011;13809;48.632;11.576;2023-03-12T08:26:19;7.27;;;5.33;;
26034;SDS011;13809;48.632;11.576;2023-03-12T08:31:22;5.63;;;5.13;;
26034;SDS011;13809;48.632;11.576;2023-03-12T08:36:27;6.43;;;5.70;;
26034;SDS011;13809;48.632;11.576;2023-03-12T08:41:30;6.93;;;6.20;;
26034;SDS011;13809;48.632;11.576;2023-03-12T08:46:33;6.07;;;5.50;;
26034;SDS011;13809;48.632;11.576;2023-03-12T08:51:38;5.53;;;5.03;;
26034;SDS011;13809;48.632;11.576;2023-03-12T08:56:41;6.83;;;6.20;;
26034;SDS011;13809;48.632;11.576;2023-03-12T09:01:45;6.83;;;6.17;;
26034;SDS011;13809;48.632;11.576;2023-03-12T09:06:49;7.13;;;6.50;;
26034;SDS011;13809;48.632;11.576;2023-03-12T09:11:52;7.93;;;6.93;;
26034;SDS011;13809;48.632;11.576;2023-03-12T09:16:55;7.10;;;6.50;;
26034;SDS011;13809;48.632;11.576;2023-03-12T09:22:00;9.07;;;8.20;;
26034;SDS011;13809;48.632;11.576;2023-03-12T09:27:03;10.30;;;9.33;;
26034;SDS011;13809;48.632;11.576;2023-03-12T09:32:07;7.10;;;5.40;;
26034;SDS011;13809;48.632;11.576;2023-03-12T09:37:12;12.87;;;11.57;;
26034;SDS011;13809;48.632;11.576;2023-03-12T09:42:18;9.67;;;7.70;;
26034;SDS011;13809;48.632;11.576;2023-03-12T09:47:25;5.77;;;5.17;;
26034;SDS011;13809;48.632;11.576;2023-03-12T09:52:35;13.03;;;11.73;;
26034;SDS011;13809;48.632;11.576;2023-03-12T09:57:42;8.00;;;7.20;;
26034;SDS011;13809;48.632;11.576;2023-03-12T10:03:01;8.73;;;6.97;;
26034;SDS011;13809;48.632;11.576;2023-03-12T10:08:22;6.10;;;5.50;;
26034;SDS011;13809;48.632;11.576;2023-03-12T10:13:46;6.63;;;5.53;;
26034;SDS011;13809;48.632;11.576;2023-03-12T10:19:04;6.33;;;5.77;;
26034;SDS011;13809;48.632;11.576;2023-03-12T10:24:27;6.40;;;5.80;;
26034;SDS011;13809;48.632;11.576;2023-03-12T10:29:39;7.57;;;6.87;;
26034;SDS011;13809;48.632;11.576;2023-03-12T10:34:45;6.87;;;6.27;;
26034;SDS011;13809;48.632;11.576;2023-03-12T10:39:53;7.00;;;6.40;;
26034;SDS011;13809;48.632;11.576;2023-03-12T10:44:57;6.80;;;6.17;;
26034;SDS011;13809;48.632;11.576;2023-03-12T10:50:15;7.83;;;7.13;;
26034;SDS011;13809;48.632;11.576;2023-03-12T10:55:22;7.33;;;6.63;;
26034;SDS011;13809;48.632;11.576;2023-03-12T11:00:28;8.13;;;7.40;;
26034;SDS011;13809;48.632;11.576;2023-03-12T11:05:34;7.20;;;6.60;;
26034;SDS011;13809;48.632;11.576;2023-03-12T11:10:41;9.77;;;8.77;;
26034;SDS011;13809;48.632;11.576;2023-03-12T11:15:46;6.10;;;5.60;;
26034;SDS011;13809;48.632;11.576;2023-03-12T11:20:51;5.33;;;4.90;;
26034;SDS011;13809;48.632;11.576;2023-03-12T11:25:59;5.73;;;5.33;;
26034;SDS011;13809;48.632;11.576;2023-03-12T11:31:04;6.60;;;5.97;;
26034;SDS011;13809;48.632;11.576;2023-03-12T11:41:46;4.90;;;4.43;;
26034;SDS011;13809;48.632;11.576;2023-03-12T11:47:07;4.77;;;4.33;;
26034;SDS011;13809;48.632;11.576;2023-03-12T11:52:22;4.47;;;4.07;;
26034;SDS011;13809;48.632;11.576;2023-03-12T11:57:36;5.23;;;4.73;;
26034;SDS011;13809;48.632;11.576;2023-03-12T12:02:53;4.20;;;3.80;;
26034;SDS011;13809;48.632;11.576;2023-03-12T12:08:29;3.93;;;3.63;;
26034;SDS011;13809;48.632;11.576;2023-03-12T12:13:50;3.20;;;3.00;;
26034;SDS011;13809;48.632;11.576;2023-03-12T12:19:01;3.13;;;2.93;;
26034;SDS011;13809;48.632;11.576;2023-03-12T12:24:18;5.67;;;5.03;;
26034;SDS011;13809;48.632;11.576;2023-03-12T12:29:41;5.60;;;5.10;;
26034;SDS011;13809;48.632;11.576;2023-03-12T12:35:15;4.37;;;3.97;;
26034;SDS011;13809;48.632;11.576;2023-03-12T12:40:28;3.47;;;3.00;;
26034;SDS011;13809;48.632;11.576;2023-03-12T12:45:40;3.10;;;2.90;;
26034;SDS011;13809;48.632;11.576;2023-03-12T12:50:43;3.30;;;3.00;;
26034;SDS011;13809;48.632;11.576;2023-03-12T12:55:52;2.53;;;2.33;;
26034;SDS011;13809;48.632;11.576;2023-03-12T13:01:03;2.60;;;2.40;;
26034;SDS011;13809;48.632;11.576;2023-03-12T13:06:07;2.53;;;2.33;;
26034;SDS011;13809;48.632;11.576;2023-03-12T13:11:21;2.63;;;2.43;;
26034;SDS011;13809;48.632;11.576;2023-03-12T13:16:30;2.73;;;2.53;;
26034;SDS011;13809;48.632;11.576;2023-03-12T13:21:36;2.57;;;2.30;;
26034;SDS011;13809;48.632;11.576;2023-03-12T13:26:47;2.50;;;2.30;;
26034;SDS011;13809;48.632;11.576;2023-03-12T13:31:56;2.73;;;2.53;;
26034;SDS011;13809;48.632;11.576;2023-03-12T13:37:00;3.10;;;2.80;;
26034;SDS011;13809;48.632;11.576;2023-03-12T13:47:40;3.70;;;3.40;;
26034;SDS011;13809;48.632;11.576;2023-03-12T13:52:45;2.90;;;2.70;;
26034;SDS011;13809;48.632;11.576;2023-03-12T13:57:53;3.57;;;3.27;;
26034;SDS011;13809;48.632;11.576;2023-03-12T14:02:59;3.20;;;3.00;;
26034;SDS011;13809;48.632;11.576;2023-03-12T14:13:50;3.17;;;2.97;;
26034;SDS011;13809;48.632;11.576;2023-03-12T14:19:09;3.47;;;3.20;;
26034;SDS011;13809;48.632;11.576;2023-03-12T14:24:19;3.57;;;3.27;;
26034;SDS011;13809;48.632;11.576;2023-03-12T14:29:27;3.93;;;3.53;;
26034;SDS011;13809;48.632;11.576;2023-03-12T14:34:34;3.93;;;3.63;;
26034;SDS011;13809;48.632;11.576;2023-03-12T14:39:43;4.23;;;3.60;;
26034;SDS011;13809;48.632;11.576;2023-03-12T14:44:57;3.57;;;3.37;;
26034;SDS011;13809;48.632;11.576;2023-03-12T14:50:03;4.07;;;3.67;;
26034;SDS011;13809;48.632;11.576;2023-03-12T14:55:10;4.07;;;3.77;;
26034;SDS011;13809;48.632;11.576;2023-03-12T15:00:22;3.83;;;3.53;;
26034;SDS011;13809;48.632;11.576;2023-03-12T15:05:27;3.90;;;3.60;;
26034;SDS011;13809;48.632;11.576;2023-03-12T15:10:31;4.77;;;3.40;;
26034;SDS011;13809;48.632;11.576;2023-03-12T15:15:35;3.90;;;3.60;;
26034;SDS011;13809;48.632;11.576;2023-03-12T15:20:44;4.03;;;3.73;;
26034;SDS011;13809;48.632;11.576;2023-03-12T15:25:48;4.10;;;3.80;;
26034;SDS011;13809;48.632;11.576;2023-03-12T15:31:12;4.30;;;3.90;;
26034;SDS011;13809;48.632;11.576;2023-03-12T15:36:27;4.80;;;4.40;;
26034;SDS011;13809;48.632;11.576;2023-03-12T15:41:36;4.27;;;3.80;;
26034;SDS011;13809;48.632;11.576;2023-03-12T15:46:52;4.63;;;4.23;;
26034;SDS011;13809;48.632;11.576;2023-03-12T15:52:11;5.13;;;4.67;;
26034;SDS011;13809;48.632;11.576;2023-03-12T15:57:28;6.43;;;5.83;;
26034;SDS011;13809;48.632;11.576;2023-03-12T16:02:35;5.43;;;5.03;;
26034;SDS011;13809;48.632;11.576;2023-03-12T16:07:41;5.30;;;4.90;;
26034;SDS011;13809;48.632;11.576;2023-03-12T16:12:44;5.90;;;5.40;;
26034;SDS011;13809;48.632;11.576;2023-03-12T16:17:50;5.27;;;4.83;;
26034;SDS011;13809;48.632;11.576;2023-03-12T16:22:54;5.17;;;4.60;;
26034;SDS011;13809;48.632;11.576;2023-03-12T16:27:59;8.63;;;7.83;;
26034;SDS011;13809;48.632;11.576;2023-03-12T16:33:04;8.77;;;7.87;;
26034;SDS011;13809;48.632;11.576;2023-03-12T16:38:11;7.60;;;6.90;;
26034;SDS011;13809;48.632;11.576;2023-03-12T16:43:15;8.00;;;7.20;;
26034;SDS011;13809;48.632;11.576;2023-03-12T16:48:21;6.67;;;6.17;;
26034;SDS011;13809;48.632;11.576;2023-03-12T16:53:28;6.67;;;6.07;;
26034;SDS011;13809;48.632;11.576;2023-03-12T16:58:31;7.63;;;7.00;;
26034;SDS011;13809;48.632;11.576;2023-03-12T17:03:35;7.13;;;6.37;;
26034;SDS011;13809;48.632;11.576;2023-03-12T17:08:40;7.10;;;6.40;;
26034;SDS011;13809;48.632;11.576;2023-03-12T17:13:45;6.70;;;6.10;;
26034;SDS011;13809;48.632;11.576;2023-03-12T17:18:50;6.90;;;6.30;;
26034;SDS011;13809;48.632;11.576;2023-03-12T17:23:54;5.07;;;4.57;;
26034;SDS011;13809;48.632;11.576;2023-03-12T17:28:57;4.97;;;4.57;;
26034;SDS011;13809;48.632;11.576;2023-03-12T17:34:00;4.87;;;4.27;;
26034;SDS011;13809;48.632;11.576;2023-03-12T17:39:05;4.23;;;3.93;;
26034;SDS011;13809;48.632;11.576;2023-03-12T17:44:08;5.03;;;4.50;;
26034;SDS011;13809;48.632;11.576;2023-03-12T17:49:14;5.33;;;4.83;;
26034;SDS011;13809;48.632;11.576;2023-03-12T17:54:18;4.97;;;4.47;;
26034;SDS011;13809;48.632;11.576;2023-03-12T17:59:22;6.87;;;6.27;;
26034;SDS011;13809;48.632;11.576;2023-03-12T18:04:25;6.67;;;6.07;;
26034;SDS011;13809;48.632;11.576;2023-03-12T18:09:30;7.63;;;6.93;;
26034;SDS011;13809;48.632;11.576;2023-03-12T18:14:33;10.33;;;9.23;;
26034;SDS011;13809;48.632;11.576;2023-03-12T18:19:36;9.07;;;7.47;;
26034;SDS011;13809;48.632;11.576;2023-03-12T18:24:41;9.00;;;8.20;;
26034;SDS011;13809;48.632;11.576;2023-03-12T18:29:44;8.03;;;7.23;;
26034;SDS011;13809;48.632;11.576;2023-03-12T18:34:50;9.70;;;7.23;;
26034;SDS011;13809;48.632;11.576;2023-03-12T18:39:54;7.13;;;6.43;;
26034;SDS011;13809;48.632;11.576;2023-03-12T18:44:58;8.37;;;7.27;;
26034;SDS011;13809;48.632;11.576;2023-03-12T18:50:01;8.83;;;7.97;;
26034;SDS011;13809;48.632;11.576;2023-03-12T18:55:05;8.83;;;6.90;;
26034;SDS011;13809;48.632;11.576;2023-03-12T19:00:15;7.53;;;5.70;;
26034;SDS011;13809;48.632;11.576;2023-03-12T19:05:19;7.00;;;6.03;;
26034;SDS011;13809;48.632;11.576;2023-03-12T19:10:24;6.87;;;5.57;;
26034;SDS011;13809;48.632;11.576;2023-03-12T19:15:27;6.77;;;5.13;;
26034;SDS011;13809;48.632;11.576;2023-03-12T19:20:31;10.07;;;5.37;;
26034;SDS011;13809;48.632;11.576;2023-03-12T19:25:36;6.43;;;4.80;;
26034;SDS011;13809;48.632;11.576;2023-03-12T19:30:39;6.03;;;5.30;;
26034;SDS011;13809;48.632;11.576;2023-03-12T19:35:43;6.90;;;5.80;;
26034;SDS011;13809;48.632;11.576;2023-03-12T19:40:48;7.60;;;6.00;;
26034;SDS011;13809;48.632;11.576;2023-03-12T19:45:55;7.63;;;6.67;;
26034;SDS011;13809;48.632;11.576;2023-03-12T19:51:03;6.80;;;6.10;;
26034;SDS011;13809;48.632;11.576;2023-03-12T19:56:08;6.97;;;6.27;;
26034;SDS011;13809;48.632;11.576;2023-03-12T20:01:11;6.90;;;5.97;;
26034;SDS011;13809;48.632;11.576;2023-03-12T20:06:14;5.70;;;5.20;;
26034;SDS011;13809;48.632;11.576;2023-03-12T20:11:19;5.80;;;5.17;;
26034;SDS011;13809;48.632;11.576;2023-03-12T20:16:22;5.40;;;3.50;;
26034;SDS011;13809;48.632;11.576;2023-03-12T20:21:25;3.83;;;3.00;;
26034;SDS011;13809;48.632;11.576;2023-03-12T20:26:32;4.13;;;2.33;;
26034;SDS011;13809;48.632;11.576;2023-03-12T20:31:35;4.17;;;2.13;;
26034;SDS011;13809;48.632;11.576;2023-03-12T20:36:39;4.17;;;2.30;;
26034;SDS011;13809;48.632;11.576;2023-03-12T20:41:44;3.43;;;2.20;;
26034;SDS011;13809;48.632;11.576;2023-03-12T20:46:47;4.40;;;2.50;;
26034;SDS011;13809;48.632;11.576;2023-03-12T20:51:50;5.53;;;3.53;;
26034;SDS011;13809;48.632;11.576;2023-03-12T20:56:55;3.50;;;3.20;;
26034;SDS011;13809;48.632;11.576;2023-03-12T21:01:59;4.03;;;3.40;;
26034;SDS011;13809;48.632;11.576;2023-03-12T21:07:02;5.50;;;3.50;;
26034;SDS011;13809;48.632;11.576;2023-03-12T21:12:06;6.53;;;3.30;;
26034;SDS011;13809;48.632;11.576;2023-03-12T21:17:10;5.50;;;3.50;;
26034;SDS011;13809;48.632;11.576;2023-03-12T21:22:14;6.00;;;3.40;;
26034;SDS011;13809;48.632;11.576;2023-03-12T21:27:19;3.97;;;2.80;;
26034;SDS011;13809;48.632;11.576;2023-03-12T21:32:22;4.93;;;2.80;;
26034;SDS011;13809;48.632;11.576;2023-03-12T21:37:26;4.67;;;2.70;;
26034;SDS011;13809;48.632;11.576;2023-03-12T21:42:31;3.70;;;2.37;;
26034;SDS011;13809;48.632;11.576;2023-03-12T21:47:34;4.30;;;2.90;;
26034;SDS011;13809;48.632;11.576;2023-03-12T21:52:38;4.93;;;3.00;;
26034;SDS011;13809;48.632;11.576;2023-03-12T21:57:45;4.10;;;2.80;;
26034;SDS011;13809;48.632;11.576;2023-03-12T22:02:48;4.63;;;3.10;;
26034;SDS011;13809;48.632;11.576;2023-03-12T22:07:51;3.97;;;2.70;;
26034;SDS011;13809;48.632;11.576;2023-03-12T22:12:56;3.93;;;2.90;;
26034;SDS011;13809;48.632;11.576;2023-03-12T22:18:00;3.30;;;2.60;;
26034;SDS011;13809;48.632;11.576;2023-03-12T22:23:03;5.63;;;2.90;;
26034;SDS011;13809;48.632;11.576;2023-03-12T22:28:08;5.20;;;2.70;;
26034;SDS011;13809;48.632;11.576;2023-03-12T22:33:12;3.77;;;2.47;;
26034;SDS011;13809;48.632;11.576;2023-03-12T22:38:15;2.83;;;2.27;;
26034;SDS011;13809;48.632;11.576;2023-03-12T22:43:19;3.63;;;2.20;;
26034;SDS011;13809;48.632;11.576;2023-03-12T22:48:22;5.30;;;2.20;;
26034;SDS011;13809;48.632;11.576;2023-03-12T22:53:26;3.33;;;2.30;;
26034;SDS011;13809;48.632;11.576;2023-03-12T22:58:31;4.00;;;2.20;;
26034;SDS011;13809;48.632;11.576;2023-03-12T23:03:35;3.30;;;2.23;;
26034;SDS011;13809;48.632;11.576;2023-03-12T23:08:39;3.47;;;2.20;;
26034;SDS011;13809;48.632;11.576;2023-03-12T23:13:46;3.47;;;2.20;;
26034;SDS011;13809;48.632;11.576;2023-03-12T23:18:50;3.00;;;2.10;;
26034;SDS011;13809;48.632;11.576;2023-03-12T23:23:53;3.53;;;1.83;;
26034;SDS011;13809;48.632;11.576;2023-03-12T23:28:57;2.63;;;1.80;;
26034;SDS011;13809;48.632;11.576;2023-03-12T23:34:01;2.73;;;1.70;;
26034;SDS011;13809;48.632;11.576;2023-03-12T23:39:04;4.80;;;2.40;;
26034;SDS011;13809;48.632;11.576;2023-03-12T23:44:08;4.37;;;2.60;;
26034;SDS011;13809;48.632;11.576;2023-03-12T23:49:11;4.07;;;2.27;;
